sensor_id;sensor_type;location;lat;lon;timestamp;P1;durP1;ratioP1;P2;durP2;ratioP2
8958;SDS011;4514;49.476;8.484;2022-07-29T00:00:53;5.13;;;2.83;;
8958;SDS011;4514;49.476;8.484;2022-07-29T00:03:21;4.63;;;3.10;;
8958;SDS011;4514;49.476;8.484;2022-07-29T00:05:51;3.17;;;2.83;;
8958;SDS011;4514;49.476;8.484;2022-07-29T00:08:20;7.35;;;2.90;;
8958;SDS011;4514;49.476;8.484;2022-07-29T00:10:46;5.32;;;3.25;;
8958;SDS011;4514;49.476;8.484;2022-07-29T00:13:11;6.20;;;2.90;;
8958;SDS011;4514;49.476;8.484;2022-07-29T00:15:37;5.65;;;3.17;;
8958;SDS011;4514;49.476;8.484;2022-07-29T00:18:02;4.05;;;3.17;;
8958;SDS011;4514;49.476;8.484;2022-07-29T00:20:28;3.15;;;2.85;;
8958;SDS011;4514;49.476;8.484;2022-07-29T00:22:56;3.65;;;2.92;;
8958;SDS011;4514;49.476;8.484;2022-07-29T00:25:21;2.83;;;2.58;;
8958;SDS011;4514;49.476;8.484;2022-07-29T00:27:47;4.65;;;3.08;;
8958;SDS011;4514;49.476;8.484;2022-07-29T00:30:12;3.33;;;3.00;;
8958;SDS011;4514;49.476;8.484;2022-07-29T00:32:38;4.00;;;2.92;;
8958;SDS011;4514;49.476;8.484;2022-07-29T00:35:03;4.18;;;3.58;;
8958;SDS011;4514;49.476;8.484;2022-07-29T00:37:48;5.30;;;3.45;;
8958;SDS011;4514;49.476;8.484;2022-07-29T00:40:13;4.15;;;3.10;;
8958;SDS011;4514;49.476;8.484;2022-07-29T00:42:57;4.93;;;3.20;;
8958;SDS011;4514;49.476;8.484;2022-07-29T00:45:22;5.45;;;3.20;;
8958;SDS011;4514;49.476;8.484;2022-07-29T00:47:50;3.95;;;3.08;;
8958;SDS011;4514;49.476;8.484;2022-07-29T00:50:15;4.70;;;3.30;;
8958;SDS011;4514;49.476;8.484;2022-07-29T00:52:43;4.93;;;3.28;;
8958;SDS011;4514;49.476;8.484;2022-07-29T00:55:10;3.63;;;3.25;;
8958;SDS011;4514;49.476;8.484;2022-07-29T00:57:39;3.55;;;3.03;;
8958;SDS011;4514;49.476;8.484;2022-07-29T01:00:05;3.88;;;3.47;;
8958;SDS011;4514;49.476;8.484;2022-07-29T01:02:35;3.47;;;3.00;;
8958;SDS011;4514;49.476;8.484;2022-07-29T01:05:01;5.22;;;3.45;;
8958;SDS011;4514;49.476;8.484;2022-07-29T01:07:30;3.72;;;3.20;;
8958;SDS011;4514;49.476;8.484;2022-07-29T01:09:58;5.85;;;3.45;;
8958;SDS011;4514;49.476;8.484;2022-07-29T01:12:25;6.43;;;4.03;;
8958;SDS011;4514;49.476;8.484;2022-07-29T01:14:52;5.32;;;3.95;;
8958;SDS011;4514;49.476;8.484;2022-07-29T01:17:21;7.20;;;4.15;;
8958;SDS011;4514;49.476;8.484;2022-07-29T01:25:11;6.18;;;3.90;;
8958;SDS011;4514;49.476;8.484;2022-07-29T01:30:21;6.55;;;4.13;;
8958;SDS011;4514;49.476;8.484;2022-07-29T01:32:48;6.15;;;3.20;;
8958;SDS011;4514;49.476;8.484;2022-07-29T01:40:13;7.82;;;3.55;;
8958;SDS011;4514;49.476;8.484;2022-07-29T01:42:49;6.10;;;3.47;;
8958;SDS011;4514;49.476;8.484;2022-07-29T01:45:18;6.45;;;3.75;;
8958;SDS011;4514;49.476;8.484;2022-07-29T01:50:50;7.53;;;4.63;;
8958;SDS011;4514;49.476;8.484;2022-07-29T01:53:26;7.55;;;5.00;;
8958;SDS011;4514;49.476;8.484;2022-07-29T01:55:56;8.73;;;4.65;;
8958;SDS011;4514;49.476;8.484;2022-07-29T01:58:22;7.25;;;4.45;;
8958;SDS011;4514;49.476;8.484;2022-07-29T02:00:48;6.90;;;4.30;;
8958;SDS011;4514;49.476;8.484;2022-07-29T02:03:17;8.95;;;3.88;;
8958;SDS011;4514;49.476;8.484;2022-07-29T02:05:43;6.72;;;4.18;;
8958;SDS011;4514;49.476;8.484;2022-07-29T02:08:10;9.52;;;3.80;;
8958;SDS011;4514;49.476;8.484;2022-07-29T02:10:36;7.65;;;4.10;;
8958;SDS011;4514;49.476;8.484;2022-07-29T02:13:03;5.78;;;3.42;;
8958;SDS011;4514;49.476;8.484;2022-07-29T02:15:30;5.32;;;3.85;;
8958;SDS011;4514;49.476;8.484;2022-07-29T02:18:07;6.68;;;3.60;;
8958;SDS011;4514;49.476;8.484;2022-07-29T02:20:34;3.97;;;3.55;;
8958;SDS011;4514;49.476;8.484;2022-07-29T02:23:01;9.25;;;3.55;;
8958;SDS011;4514;49.476;8.484;2022-07-29T02:25:27;4.07;;;3.45;;
8958;SDS011;4514;49.476;8.484;2022-07-29T02:27:57;5.40;;;3.58;;
8958;SDS011;4514;49.476;8.484;2022-07-29T02:30:26;7.22;;;3.35;;
8958;SDS011;4514;49.476;8.484;2022-07-29T02:32:54;5.07;;;3.70;;
8958;SDS011;4514;49.476;8.484;2022-07-29T02:35:20;10.15;;;3.92;;
8958;SDS011;4514;49.476;8.484;2022-07-29T02:37:46;5.78;;;4.18;;
8958;SDS011;4514;49.476;8.484;2022-07-29T02:40:32;7.78;;;3.83;;
8958;SDS011;4514;49.476;8.484;2022-07-29T02:42:58;7.72;;;3.88;;
8958;SDS011;4514;49.476;8.484;2022-07-29T02:45:26;5.27;;;3.73;;
8958;SDS011;4514;49.476;8.484;2022-07-29T02:47:52;6.15;;;3.90;;
8958;SDS011;4514;49.476;8.484;2022-07-29T02:50:32;6.60;;;3.53;;
8958;SDS011;4514;49.476;8.484;2022-07-29T02:53:14;5.55;;;3.92;;
8958;SDS011;4514;49.476;8.484;2022-07-29T02:55:48;4.15;;;3.55;;
8958;SDS011;4514;49.476;8.484;2022-07-29T02:58:34;5.95;;;4.15;;
8958;SDS011;4514;49.476;8.484;2022-07-29T03:01:20;8.18;;;4.20;;
8958;SDS011;4514;49.476;8.484;2022-07-29T03:03:50;8.70;;;4.20;;
8958;SDS011;4514;49.476;8.484;2022-07-29T03:06:18;5.80;;;4.03;;
8958;SDS011;4514;49.476;8.484;2022-07-29T03:08:44;6.88;;;4.03;;
8958;SDS011;4514;49.476;8.484;2022-07-29T03:11:10;6.82;;;3.75;;
8958;SDS011;4514;49.476;8.484;2022-07-29T03:13:41;9.27;;;3.92;;
8958;SDS011;4514;49.476;8.484;2022-07-29T03:16:06;8.35;;;3.60;;
8958;SDS011;4514;49.476;8.484;2022-07-29T03:18:33;5.13;;;3.20;;
8958;SDS011;4514;49.476;8.484;2022-07-29T03:20:58;4.15;;;3.17;;
8958;SDS011;4514;49.476;8.484;2022-07-29T03:23:24;5.22;;;3.13;;
8958;SDS011;4514;49.476;8.484;2022-07-29T03:25:55;5.90;;;3.03;;
8958;SDS011;4514;49.476;8.484;2022-07-29T03:28:25;5.82;;;3.15;;
8958;SDS011;4514;49.476;8.484;2022-07-29T03:30:52;7.40;;;3.20;;
8958;SDS011;4514;49.476;8.484;2022-07-29T03:33:18;4.78;;;2.88;;
8958;SDS011;4514;49.476;8.484;2022-07-29T03:35:43;3.67;;;3.20;;
8958;SDS011;4514;49.476;8.484;2022-07-29T03:38:08;5.80;;;2.95;;
8958;SDS011;4514;49.476;8.484;2022-07-29T03:40:38;5.30;;;3.17;;
8958;SDS011;4514;49.476;8.484;2022-07-29T03:43:11;3.25;;;2.92;;
8958;SDS011;4514;49.476;8.484;2022-07-29T03:45:38;7.22;;;3.08;;
8958;SDS011;4514;49.476;8.484;2022-07-29T03:48:05;3.42;;;3.03;;
8958;SDS011;4514;49.476;8.484;2022-07-29T03:50:32;4.05;;;3.00;;
8958;SDS011;4514;49.476;8.484;2022-07-29T03:53:01;4.50;;;2.95;;
8958;SDS011;4514;49.476;8.484;2022-07-29T03:55:29;4.35;;;2.80;;
8958;SDS011;4514;49.476;8.484;2022-07-29T03:57:57;4.50;;;3.22;;
8958;SDS011;4514;49.476;8.484;2022-07-29T04:00:24;5.70;;;3.03;;
8958;SDS011;4514;49.476;8.484;2022-07-29T04:02:54;4.47;;;3.20;;
8958;SDS011;4514;49.476;8.484;2022-07-29T04:05:19;3.58;;;2.90;;
8958;SDS011;4514;49.476;8.484;2022-07-29T04:07:47;4.80;;;3.13;;
8958;SDS011;4514;49.476;8.484;2022-07-29T04:10:13;5.18;;;3.40;;
8958;SDS011;4514;49.476;8.484;2022-07-29T04:12:40;4.68;;;2.90;;
8958;SDS011;4514;49.476;8.484;2022-07-29T04:15:06;4.97;;;3.25;;
8958;SDS011;4514;49.476;8.484;2022-07-29T04:17:34;4.82;;;3.00;;
8958;SDS011;4514;49.476;8.484;2022-07-29T04:20:00;4.70;;;2.97;;
8958;SDS011;4514;49.476;8.484;2022-07-29T04:22:26;5.78;;;3.10;;
8958;SDS011;4514;49.476;8.484;2022-07-29T04:24:54;3.08;;;2.78;;
8958;SDS011;4514;49.476;8.484;2022-07-29T04:27:19;4.80;;;3.50;;
8958;SDS011;4514;49.476;8.484;2022-07-29T04:29:47;3.35;;;2.80;;
8958;SDS011;4514;49.476;8.484;2022-07-29T04:32:13;4.28;;;3.10;;
8958;SDS011;4514;49.476;8.484;2022-07-29T04:34:38;4.32;;;3.08;;
8958;SDS011;4514;49.476;8.484;2022-07-29T04:37:04;5.53;;;3.42;;
8958;SDS011;4514;49.476;8.484;2022-07-29T04:39:29;5.57;;;3.13;;
8958;SDS011;4514;49.476;8.484;2022-07-29T04:41:54;4.28;;;3.13;;
8958;SDS011;4514;49.476;8.484;2022-07-29T04:44:22;5.43;;;3.05;;
8958;SDS011;4514;49.476;8.484;2022-07-29T04:46:47;7.30;;;3.40;;
8958;SDS011;4514;49.476;8.484;2022-07-29T04:49:15;6.97;;;3.38;;
8958;SDS011;4514;49.476;8.484;2022-07-29T04:51:40;5.13;;;3.10;;
8958;SDS011;4514;49.476;8.484;2022-07-29T04:54:06;5.15;;;3.65;;
8958;SDS011;4514;49.476;8.484;2022-07-29T04:56:31;6.57;;;3.38;;
8958;SDS011;4514;49.476;8.484;2022-07-29T04:59:03;4.90;;;3.47;;
8958;SDS011;4514;49.476;8.484;2022-07-29T05:01:29;3.88;;;3.17;;
8958;SDS011;4514;49.476;8.484;2022-07-29T05:03:59;4.38;;;3.67;;
8958;SDS011;4514;49.476;8.484;2022-07-29T05:06:24;5.97;;;3.70;;
8958;SDS011;4514;49.476;8.484;2022-07-29T05:08:50;5.40;;;3.75;;
8958;SDS011;4514;49.476;8.484;2022-07-29T05:11:18;4.55;;;3.45;;
8958;SDS011;4514;49.476;8.484;2022-07-29T05:13:44;5.13;;;3.60;;
8958;SDS011;4514;49.476;8.484;2022-07-29T05:16:10;6.75;;;3.70;;
8958;SDS011;4514;49.476;8.484;2022-07-29T05:18:35;8.00;;;3.58;;
8958;SDS011;4514;49.476;8.484;2022-07-29T05:21:00;5.43;;;3.90;;
8958;SDS011;4514;49.476;8.484;2022-07-29T05:23:26;7.82;;;3.63;;
8958;SDS011;4514;49.476;8.484;2022-07-29T05:25:51;5.30;;;3.45;;
8958;SDS011;4514;49.476;8.484;2022-07-29T05:28:21;7.60;;;4.50;;
8958;SDS011;4514;49.476;8.484;2022-07-29T05:30:49;11.85;;;4.75;;
8958;SDS011;4514;49.476;8.484;2022-07-29T05:33:14;7.35;;;4.50;;
8958;SDS011;4514;49.476;8.484;2022-07-29T05:35:40;9.75;;;4.25;;
8958;SDS011;4514;49.476;8.484;2022-07-29T05:38:05;12.63;;;3.97;;
8958;SDS011;4514;49.476;8.484;2022-07-29T05:40:33;5.47;;;4.00;;
8958;SDS011;4514;49.476;8.484;2022-07-29T05:42:59;12.98;;;4.43;;
8958;SDS011;4514;49.476;8.484;2022-07-29T05:45:24;12.07;;;4.70;;
8958;SDS011;4514;49.476;8.484;2022-07-29T05:47:53;8.73;;;4.63;;
8958;SDS011;4514;49.476;8.484;2022-07-29T05:50:18;6.53;;;3.83;;
8958;SDS011;4514;49.476;8.484;2022-07-29T05:52:43;6.60;;;3.95;;
8958;SDS011;4514;49.476;8.484;2022-07-29T05:55:11;9.05;;;4.20;;
8958;SDS011;4514;49.476;8.484;2022-07-29T05:57:37;9.93;;;4.78;;
8958;SDS011;4514;49.476;8.484;2022-07-29T06:00:02;14.02;;;5.32;;
8958;SDS011;4514;49.476;8.484;2022-07-29T06:02:28;12.07;;;5.05;;
8958;SDS011;4514;49.476;8.484;2022-07-29T06:04:54;8.65;;;4.90;;
8958;SDS011;4514;49.476;8.484;2022-07-29T06:07:19;12.25;;;4.97;;
8958;SDS011;4514;49.476;8.484;2022-07-29T06:09:45;10.15;;;5.38;;
8958;SDS011;4514;49.476;8.484;2022-07-29T06:12:10;8.70;;;4.93;;
8958;SDS011;4514;49.476;8.484;2022-07-29T06:14:38;8.40;;;4.70;;
8958;SDS011;4514;49.476;8.484;2022-07-29T06:17:06;6.22;;;4.05;;
8958;SDS011;4514;49.476;8.484;2022-07-29T06:19:36;7.25;;;4.32;;
8958;SDS011;4514;49.476;8.484;2022-07-29T06:22:04;6.65;;;4.18;;
8958;SDS011;4514;49.476;8.484;2022-07-29T06:24:30;7.80;;;4.20;;
8958;SDS011;4514;49.476;8.484;2022-07-29T06:26:55;6.13;;;4.07;;
8958;SDS011;4514;49.476;8.484;2022-07-29T06:29:21;10.38;;;4.53;;
8958;SDS011;4514;49.476;8.484;2022-07-29T06:31:46;7.90;;;3.97;;
8958;SDS011;4514;49.476;8.484;2022-07-29T06:34:11;6.30;;;4.18;;
8958;SDS011;4514;49.476;8.484;2022-07-29T06:36:40;8.55;;;4.28;;
8958;SDS011;4514;49.476;8.484;2022-07-29T06:39:05;8.32;;;4.30;;
8958;SDS011;4514;49.476;8.484;2022-07-29T06:41:31;7.20;;;3.85;;
8958;SDS011;4514;49.476;8.484;2022-07-29T06:43:57;6.97;;;4.25;;
8958;SDS011;4514;49.476;8.484;2022-07-29T06:46:22;5.43;;;3.72;;
8958;SDS011;4514;49.476;8.484;2022-07-29T06:48:51;7.47;;;3.88;;
8958;SDS011;4514;49.476;8.484;2022-07-29T06:51:17;6.32;;;4.07;;
8958;SDS011;4514;49.476;8.484;2022-07-29T06:53:45;7.65;;;3.70;;
8958;SDS011;4514;49.476;8.484;2022-07-29T06:56:13;6.32;;;4.28;;
8958;SDS011;4514;49.476;8.484;2022-07-29T06:58:39;5.93;;;4.00;;
8958;SDS011;4514;49.476;8.484;2022-07-29T07:01:04;9.95;;;3.95;;
8958;SDS011;4514;49.476;8.484;2022-07-29T07:03:33;7.65;;;4.13;;
8958;SDS011;4514;49.476;8.484;2022-07-29T07:05:58;5.95;;;3.45;;
8958;SDS011;4514;49.476;8.484;2022-07-29T07:08:27;7.60;;;3.85;;
8958;SDS011;4514;49.476;8.484;2022-07-29T07:10:52;6.97;;;3.70;;
8958;SDS011;4514;49.476;8.484;2022-07-29T07:13:18;7.13;;;3.75;;
8958;SDS011;4514;49.476;8.484;2022-07-29T07:15:44;5.50;;;4.00;;
8958;SDS011;4514;49.476;8.484;2022-07-29T07:18:13;4.78;;;3.65;;
8958;SDS011;4514;49.476;8.484;2022-07-29T07:20:39;4.78;;;3.67;;
8958;SDS011;4514;49.476;8.484;2022-07-29T07:23:05;6.68;;;3.65;;
8958;SDS011;4514;49.476;8.484;2022-07-29T07:25:30;8.20;;;3.72;;
8958;SDS011;4514;49.476;8.484;2022-07-29T07:27:56;7.30;;;3.85;;
8958;SDS011;4514;49.476;8.484;2022-07-29T07:30:21;4.10;;;3.60;;
8958;SDS011;4514;49.476;8.484;2022-07-29T07:32:49;5.65;;;3.80;;
8958;SDS011;4514;49.476;8.484;2022-07-29T07:35:15;4.28;;;3.88;;
8958;SDS011;4514;49.476;8.484;2022-07-29T07:37:42;5.43;;;4.13;;
8958;SDS011;4514;49.476;8.484;2022-07-29T07:40:08;5.75;;;4.25;;
8958;SDS011;4514;49.476;8.484;2022-07-29T07:42:36;6.15;;;4.45;;
8958;SDS011;4514;49.476;8.484;2022-07-29T07:45:05;5.30;;;3.90;;
8958;SDS011;4514;49.476;8.484;2022-07-29T07:47:31;4.57;;;3.88;;
8958;SDS011;4514;49.476;8.484;2022-07-29T07:49:57;5.85;;;4.20;;
8958;SDS011;4514;49.476;8.484;2022-07-29T07:52:27;6.20;;;3.65;;
8958;SDS011;4514;49.476;8.484;2022-07-29T07:54:52;5.28;;;3.53;;
8958;SDS011;4514;49.476;8.484;2022-07-29T07:57:20;4.35;;;3.60;;
8958;SDS011;4514;49.476;8.484;2022-07-29T07:59:48;6.72;;;3.80;;
8958;SDS011;4514;49.476;8.484;2022-07-29T08:02:16;5.15;;;4.00;;
8958;SDS011;4514;49.476;8.484;2022-07-29T08:04:41;4.68;;;3.72;;
8958;SDS011;4514;49.476;8.484;2022-07-29T08:07:06;6.85;;;3.90;;
8958;SDS011;4514;49.476;8.484;2022-07-29T08:09:37;7.15;;;4.85;;
8958;SDS011;4514;49.476;8.484;2022-07-29T08:12:02;7.10;;;4.28;;
8958;SDS011;4514;49.476;8.484;2022-07-29T08:14:29;5.07;;;3.60;;
8958;SDS011;4514;49.476;8.484;2022-07-29T08:16:55;7.03;;;3.80;;
8958;SDS011;4514;49.476;8.484;2022-07-29T08:19:20;4.82;;;3.88;;
8958;SDS011;4514;49.476;8.484;2022-07-29T08:21:48;7.38;;;3.83;;
8958;SDS011;4514;49.476;8.484;2022-07-29T08:24:14;6.13;;;3.78;;
8958;SDS011;4514;49.476;8.484;2022-07-29T08:26:58;6.53;;;3.95;;
8958;SDS011;4514;49.476;8.484;2022-07-29T08:29:23;7.00;;;4.28;;
8958;SDS011;4514;49.476;8.484;2022-07-29T08:31:50;5.15;;;4.15;;
8958;SDS011;4514;49.476;8.484;2022-07-29T08:34:16;7.68;;;4.25;;
8958;SDS011;4514;49.476;8.484;2022-07-29T08:36:41;6.25;;;4.22;;
8958;SDS011;4514;49.476;8.484;2022-07-29T08:39:09;4.03;;;3.60;;
8958;SDS011;4514;49.476;8.484;2022-07-29T08:41:34;4.30;;;3.85;;
8958;SDS011;4514;49.476;8.484;2022-07-29T08:44:00;7.60;;;4.70;;
8958;SDS011;4514;49.476;8.484;2022-07-29T08:46:25;6.13;;;4.43;;
8958;SDS011;4514;49.476;8.484;2022-07-29T08:48:55;8.32;;;4.13;;
8958;SDS011;4514;49.476;8.484;2022-07-29T08:51:21;9.65;;;4.28;;
8958;SDS011;4514;49.476;8.484;2022-07-29T08:53:48;6.03;;;4.03;;
8958;SDS011;4514;49.476;8.484;2022-07-29T08:56:14;8.95;;;4.32;;
8958;SDS011;4514;49.476;8.484;2022-07-29T08:58:46;5.32;;;4.82;;
8958;SDS011;4514;49.476;8.484;2022-07-29T09:01:16;7.00;;;4.85;;
8958;SDS011;4514;49.476;8.484;2022-07-29T09:03:54;6.88;;;4.85;;
8958;SDS011;4514;49.476;8.484;2022-07-29T09:06:22;7.85;;;4.60;;
8958;SDS011;4514;49.476;8.484;2022-07-29T09:08:51;7.78;;;4.75;;
8958;SDS011;4514;49.476;8.484;2022-07-29T09:11:17;6.30;;;4.60;;
8958;SDS011;4514;49.476;8.484;2022-07-29T09:13:44;6.35;;;4.45;;
8958;SDS011;4514;49.476;8.484;2022-07-29T09:16:12;5.85;;;4.25;;
8958;SDS011;4514;49.476;8.484;2022-07-29T09:18:42;4.45;;;3.95;;
8958;SDS011;4514;49.476;8.484;2022-07-29T09:21:12;4.90;;;4.15;;
8958;SDS011;4514;49.476;8.484;2022-07-29T09:24:01;6.63;;;4.00;;
8958;SDS011;4514;49.476;8.484;2022-07-29T09:26:31;4.28;;;3.83;;
8958;SDS011;4514;49.476;8.484;2022-07-29T09:29:01;5.47;;;3.88;;
8958;SDS011;4514;49.476;8.484;2022-07-29T09:31:34;4.20;;;3.80;;
8958;SDS011;4514;49.476;8.484;2022-07-29T09:34:01;7.15;;;3.85;;
8958;SDS011;4514;49.476;8.484;2022-07-29T09:36:27;9.45;;;4.00;;
8958;SDS011;4514;49.476;8.484;2022-07-29T09:38:56;4.57;;;3.60;;
8958;SDS011;4514;49.476;8.484;2022-07-29T09:41:23;10.18;;;4.05;;
8958;SDS011;4514;49.476;8.484;2022-07-29T09:43:59;7.35;;;4.25;;
8958;SDS011;4514;49.476;8.484;2022-07-29T09:46:24;7.25;;;4.00;;
8958;SDS011;4514;49.476;8.484;2022-07-29T09:49:05;8.70;;;4.13;;
8958;SDS011;4514;49.476;8.484;2022-07-29T09:51:33;4.85;;;3.58;;
8958;SDS011;4514;49.476;8.484;2022-07-29T09:53:59;8.02;;;3.90;;
8958;SDS011;4514;49.476;8.484;2022-07-29T09:56:40;5.35;;;3.50;;
8958;SDS011;4514;49.476;8.484;2022-07-29T09:59:07;9.60;;;4.32;;
8958;SDS011;4514;49.476;8.484;2022-07-29T10:01:36;7.72;;;4.03;;
8958;SDS011;4514;49.476;8.484;2022-07-29T10:04:02;6.18;;;3.65;;
8958;SDS011;4514;49.476;8.484;2022-07-29T10:06:29;6.15;;;3.53;;
8958;SDS011;4514;49.476;8.484;2022-07-29T10:09:10;8.20;;;3.97;;
8958;SDS011;4514;49.476;8.484;2022-07-29T10:11:36;5.20;;;3.53;;
8958;SDS011;4514;49.476;8.484;2022-07-29T10:14:02;7.13;;;3.75;;
8958;SDS011;4514;49.476;8.484;2022-07-29T10:16:28;7.43;;;3.75;;
8958;SDS011;4514;49.476;8.484;2022-07-29T10:18:58;4.70;;;3.75;;
8958;SDS011;4514;49.476;8.484;2022-07-29T10:21:26;5.57;;;3.80;;
8958;SDS011;4514;49.476;8.484;2022-07-29T10:23:54;4.75;;;3.40;;
8958;SDS011;4514;49.476;8.484;2022-07-29T10:26:25;5.38;;;3.33;;
8958;SDS011;4514;49.476;8.484;2022-07-29T10:28:50;5.13;;;3.40;;
8958;SDS011;4514;49.476;8.484;2022-07-29T10:31:19;6.20;;;4.30;;
8958;SDS011;4514;49.476;8.484;2022-07-29T10:42:11;3.97;;;3.60;;
8958;SDS011;4514;49.476;8.484;2022-07-29T10:44:43;7.18;;;3.83;;
8958;SDS011;4514;49.476;8.484;2022-07-29T10:47:19;5.60;;;4.57;;
8958;SDS011;4514;49.476;8.484;2022-07-29T10:52:22;6.60;;;4.20;;
8958;SDS011;4514;49.476;8.484;2022-07-29T10:54:49;8.15;;;4.05;;
8958;SDS011;4514;49.476;8.484;2022-07-29T10:57:26;6.20;;;3.55;;
8958;SDS011;4514;49.476;8.484;2022-07-29T11:05:07;6.57;;;4.28;;
8958;SDS011;4514;49.476;8.484;2022-07-29T11:08:26;6.75;;;3.97;;
8958;SDS011;4514;49.476;8.484;2022-07-29T11:10:32;4.78;;;3.53;;
8958;SDS011;4514;49.476;8.484;2022-07-29T11:12:58;6.43;;;3.70;;
8958;SDS011;4514;49.476;8.484;2022-07-29T11:15:26;5.95;;;4.10;;
8958;SDS011;4514;49.476;8.484;2022-07-29T11:29:02;5.20;;;3.60;;
8958;SDS011;4514;49.476;8.484;2022-07-29T11:31:41;5.18;;;3.83;;
8958;SDS011;4514;49.476;8.484;2022-07-29T11:47:25;5.00;;;4.00;;
8958;SDS011;4514;49.476;8.484;2022-07-29T11:49:52;5.80;;;4.00;;
8958;SDS011;4514;49.476;8.484;2022-07-29T11:52:19;5.05;;;4.53;;
8958;SDS011;4514;49.476;8.484;2022-07-29T11:54:47;6.38;;;4.30;;
8958;SDS011;4514;49.476;8.484;2022-07-29T11:57:13;8.20;;;4.63;;
8958;SDS011;4514;49.476;8.484;2022-07-29T11:59:44;4.80;;;4.30;;
8958;SDS011;4514;49.476;8.484;2022-07-29T12:02:12;4.47;;;3.95;;
8958;SDS011;4514;49.476;8.484;2022-07-29T12:04:51;5.93;;;4.00;;
8958;SDS011;4514;49.476;8.484;2022-07-29T12:07:17;4.55;;;4.15;;
8958;SDS011;4514;49.476;8.484;2022-07-29T12:09:49;4.32;;;3.92;;
8958;SDS011;4514;49.476;8.484;2022-07-29T12:12:18;7.82;;;4.85;;
8958;SDS011;4514;49.476;8.484;2022-07-29T12:14:46;4.43;;;3.58;;
8958;SDS011;4514;49.476;8.484;2022-07-29T12:20:10;5.57;;;5.07;;
8958;SDS011;4514;49.476;8.484;2022-07-29T12:22:36;4.47;;;3.85;;
8958;SDS011;4514;49.476;8.484;2022-07-29T12:27:34;6.97;;;3.70;;
8958;SDS011;4514;49.476;8.484;2022-07-29T12:30:04;4.03;;;3.40;;
8958;SDS011;4514;49.476;8.484;2022-07-29T12:35:02;3.95;;;3.60;;
8958;SDS011;4514;49.476;8.484;2022-07-29T12:37:35;4.60;;;4.05;;
8958;SDS011;4514;49.476;8.484;2022-07-29T12:40:02;5.10;;;3.65;;
8958;SDS011;4514;49.476;8.484;2022-07-29T12:42:34;6.43;;;3.60;;
8958;SDS011;4514;49.476;8.484;2022-07-29T12:45:02;4.70;;;3.40;;
8958;SDS011;4514;49.476;8.484;2022-07-29T12:47:28;4.53;;;3.30;;
8958;SDS011;4514;49.476;8.484;2022-07-29T12:50:10;5.20;;;3.28;;
8958;SDS011;4514;49.476;8.484;2022-07-29T12:52:39;4.25;;;3.40;;
8958;SDS011;4514;49.476;8.484;2022-07-29T12:55:07;4.88;;;3.60;;
8958;SDS011;4514;49.476;8.484;2022-07-29T12:57:44;5.43;;;3.60;;
8958;SDS011;4514;49.476;8.484;2022-07-29T13:00:15;4.47;;;3.95;;
8958;SDS011;4514;49.476;8.484;2022-07-29T13:02:53;4.97;;;3.63;;
8958;SDS011;4514;49.476;8.484;2022-07-29T13:05:22;6.78;;;3.53;;
8958;SDS011;4514;49.476;8.484;2022-07-29T13:07:49;4.93;;;3.88;;
8958;SDS011;4514;49.476;8.484;2022-07-29T13:10:19;4.18;;;3.72;;
8958;SDS011;4514;49.476;8.484;2022-07-29T13:13:05;5.93;;;3.58;;
8958;SDS011;4514;49.476;8.484;2022-07-29T13:15:32;4.00;;;3.60;;
8958;SDS011;4514;49.476;8.484;2022-07-29T13:17:58;5.10;;;3.45;;
8958;SDS011;4514;49.476;8.484;2022-07-29T13:20:25;5.13;;;3.67;;
8958;SDS011;4514;49.476;8.484;2022-07-29T13:22:58;4.03;;;3.45;;
8958;SDS011;4514;49.476;8.484;2022-07-29T13:25:29;4.85;;;3.30;;
8958;SDS011;4514;49.476;8.484;2022-07-29T13:27:57;5.35;;;3.70;;
8958;SDS011;4514;49.476;8.484;2022-07-29T13:30:25;4.03;;;3.63;;
8958;SDS011;4514;49.476;8.484;2022-07-29T13:32:51;5.25;;;3.80;;
8958;SDS011;4514;49.476;8.484;2022-07-29T13:35:17;6.65;;;3.85;;
8958;SDS011;4514;49.476;8.484;2022-07-29T13:37:45;3.67;;;3.20;;
8958;SDS011;4514;49.476;8.484;2022-07-29T13:40:13;4.65;;;3.60;;
8958;SDS011;4514;49.476;8.484;2022-07-29T13:42:39;4.30;;;3.78;;
8958;SDS011;4514;49.476;8.484;2022-07-29T13:45:07;3.85;;;3.42;;
8958;SDS011;4514;49.476;8.484;2022-07-29T13:47:35;4.93;;;3.80;;
8958;SDS011;4514;49.476;8.484;2022-07-29T13:50:03;4.88;;;3.97;;
8958;SDS011;4514;49.476;8.484;2022-07-29T13:52:33;6.47;;;5.15;;
8958;SDS011;4514;49.476;8.484;2022-07-29T13:55:02;5.05;;;4.53;;
8958;SDS011;4514;49.476;8.484;2022-07-29T13:57:30;7.85;;;3.80;;
8958;SDS011;4514;49.476;8.484;2022-07-29T13:59:56;4.57;;;3.38;;
8958;SDS011;4514;49.476;8.484;2022-07-29T14:02:24;7.05;;;4.07;;
8958;SDS011;4514;49.476;8.484;2022-07-29T14:04:49;4.43;;;3.58;;
8958;SDS011;4514;49.476;8.484;2022-07-29T14:07:15;7.43;;;3.53;;
8958;SDS011;4514;49.476;8.484;2022-07-29T14:09:40;4.88;;;3.50;;
8958;SDS011;4514;49.476;8.484;2022-07-29T14:12:06;4.03;;;3.50;;
8958;SDS011;4514;49.476;8.484;2022-07-29T14:14:34;7.65;;;3.95;;
8958;SDS011;4514;49.476;8.484;2022-07-29T14:17:02;6.07;;;3.47;;
8958;SDS011;4514;49.476;8.484;2022-07-29T14:19:28;3.92;;;3.58;;
8958;SDS011;4514;49.476;8.484;2022-07-29T14:21:53;5.57;;;3.30;;
8958;SDS011;4514;49.476;8.484;2022-07-29T14:24:19;4.40;;;3.10;;
8958;SDS011;4514;49.476;8.484;2022-07-29T14:26:44;5.18;;;3.42;;
8958;SDS011;4514;49.476;8.484;2022-07-29T14:29:09;6.47;;;3.10;;
8958;SDS011;4514;49.476;8.484;2022-07-29T14:31:35;4.03;;;3.30;;
8958;SDS011;4514;49.476;8.484;2022-07-29T14:34:00;3.95;;;3.38;;
8958;SDS011;4514;49.476;8.484;2022-07-29T14:36:26;3.60;;;3.30;;
8958;SDS011;4514;49.476;8.484;2022-07-29T14:38:54;5.43;;;3.17;;
8958;SDS011;4514;49.476;8.484;2022-07-29T14:41:20;4.85;;;3.05;;
8958;SDS011;4514;49.476;8.484;2022-07-29T14:43:46;6.30;;;3.45;;
8958;SDS011;4514;49.476;8.484;2022-07-29T14:46:11;5.32;;;3.38;;
8958;SDS011;4514;49.476;8.484;2022-07-29T14:48:37;6.03;;;3.15;;
8958;SDS011;4514;49.476;8.484;2022-07-29T14:51:02;4.82;;;3.20;;
8958;SDS011;4514;49.476;8.484;2022-07-29T14:53:30;5.32;;;3.00;;
8958;SDS011;4514;49.476;8.484;2022-07-29T14:55:55;4.72;;;3.30;;
8958;SDS011;4514;49.476;8.484;2022-07-29T14:58:21;5.78;;;3.17;;
8958;SDS011;4514;49.476;8.484;2022-07-29T15:00:50;4.75;;;3.40;;
8958;SDS011;4514;49.476;8.484;2022-07-29T15:03:17;5.38;;;3.20;;
8958;SDS011;4514;49.476;8.484;2022-07-29T15:05:43;5.13;;;3.53;;
8958;SDS011;4514;49.476;8.484;2022-07-29T15:08:09;4.00;;;3.38;;
8958;SDS011;4514;49.476;8.484;2022-07-29T15:10:35;3.92;;;3.10;;
8958;SDS011;4514;49.476;8.484;2022-07-29T15:13:05;8.98;;;3.38;;
8958;SDS011;4514;49.476;8.484;2022-07-29T15:15:31;3.60;;;3.30;;
8958;SDS011;4514;49.476;8.484;2022-07-29T15:17:56;5.15;;;3.17;;
8958;SDS011;4514;49.476;8.484;2022-07-29T15:20:24;5.38;;;3.97;;
8958;SDS011;4514;49.476;8.484;2022-07-29T15:22:55;4.13;;;3.15;;
8958;SDS011;4514;49.476;8.484;2022-07-29T15:25:23;4.63;;;3.25;;
8958;SDS011;4514;49.476;8.484;2022-07-29T15:27:49;3.60;;;2.70;;
8958;SDS011;4514;49.476;8.484;2022-07-29T15:30:17;3.10;;;2.70;;
8958;SDS011;4514;49.476;8.484;2022-07-29T15:32:43;4.78;;;2.70;;
8958;SDS011;4514;49.476;8.484;2022-07-29T15:35:11;3.95;;;2.70;;
8958;SDS011;4514;49.476;8.484;2022-07-29T15:37:39;3.58;;;2.75;;
8958;SDS011;4514;49.476;8.484;2022-07-29T15:40:05;3.25;;;2.45;;
8958;SDS011;4514;49.476;8.484;2022-07-29T15:42:31;3.22;;;2.97;;
8958;SDS011;4514;49.476;8.484;2022-07-29T15:44:56;3.70;;;2.50;;
8958;SDS011;4514;49.476;8.484;2022-07-29T15:47:27;3.88;;;2.50;;
8958;SDS011;4514;49.476;8.484;2022-07-29T15:49:53;3.53;;;2.63;;
8958;SDS011;4514;49.476;8.484;2022-07-29T15:52:21;5.22;;;2.60;;
8958;SDS011;4514;49.476;8.484;2022-07-29T15:54:46;3.83;;;2.58;;
8958;SDS011;4514;49.476;8.484;2022-07-29T15:57:12;3.15;;;2.40;;
8958;SDS011;4514;49.476;8.484;2022-07-29T15:59:39;2.67;;;2.33;;
8958;SDS011;4514;49.476;8.484;2022-07-29T16:02:07;2.40;;;2.20;;
8958;SDS011;4514;49.476;8.484;2022-07-29T16:04:32;7.43;;;2.35;;
8958;SDS011;4514;49.476;8.484;2022-07-29T16:07:00;3.67;;;2.30;;
8958;SDS011;4514;49.476;8.484;2022-07-29T16:09:26;2.35;;;2.15;;
8958;SDS011;4514;49.476;8.484;2022-07-29T16:11:55;2.40;;;2.20;;
8958;SDS011;4514;49.476;8.484;2022-07-29T16:14:20;3.75;;;2.45;;
8958;SDS011;4514;49.476;8.484;2022-07-29T16:16:49;4.53;;;2.70;;
8958;SDS011;4514;49.476;8.484;2022-07-29T16:19:14;4.18;;;2.10;;
8958;SDS011;4514;49.476;8.484;2022-07-29T16:21:44;3.00;;;2.40;;
8958;SDS011;4514;49.476;8.484;2022-07-29T16:24:12;3.92;;;2.40;;